Time;durP1;ratioP1;P1;durP2;ratioP2;P2;SDS_P1;SDS_P2;PMS_P1;PMS_P2;Temp;Humidity;BMP_temperature;BMP_pressure;BME280_temperature;BME280_humidity;BME280_pressure;Samples;Min_cycle;Max_cycle;Signal;HPM_P1;HPM_P2
2023/12/06 00:02:14;;;;;;;82.10;35.10;;;;;;;-4.28;77.34;100202.45;130940;1257;196492;-79
2023/12/06 00:05:20;;;;;;;83.90;35.00;;;;;;;-4.25;77.56;100199.02;131072;1257;106806;-78
2023/12/06 00:08:25;;;;;;;95.90;39.30;;;;;;;-4.26;77.74;100200.98;131136;1255;107540;-79
2023/12/06 00:11:31;;;;;;;95.40;38.30;;;;;;;-4.31;77.91;100208.83;131036;1256;106025;-79
2023/12/06 00:14:37;;;;;;;86.10;34.90;;;;;;;-4.32;77.80;100206.58;131084;1256;108554;-78
2023/12/06 00:17:42;;;;;;;94.60;39.60;;;;;;;-4.23;77.65;100207.64;131077;1256;107910;-77
2023/12/06 00:20:48;;;;;;;80.00;32.10;;;;;;;-4.14;77.74;100206.91;131015;1257;108536;-79
2023/12/06 00:23:54;;;;;;;90.20;35.40;;;;;;;-4.08;77.82;100208.61;131037;1261;107481;-79
2023/12/06 00:27:00;;;;;;;89.10;37.30;;;;;;;-4.04;77.76;100212.77;131058;1257;108770;-78
2023/12/06 00:30:08;;;;;;;94.00;35.80;;;;;;;-4.01;77.55;100209.88;131096;1251;107678;-79
2023/12/06 00:33:14;;;;;;;87.00;34.30;;;;;;;-3.96;77.58;100212.95;131120;1252;106119;-79
2023/12/06 00:36:19;;;;;;;83.60;35.40;;;;;;;-3.93;77.75;100213.58;131128;1263;107605;-79
2023/12/06 00:39:25;;;;;;;75.10;32.60;;;;;;;-3.97;77.54;100207.28;131084;1257;107679;-80
2023/12/06 00:42:30;;;;;;;83.20;35.10;;;;;;;-4.00;77.67;100214.02;130998;1254;107767;-78
2023/12/06 00:45:36;;;;;;;81.60;33.80;;;;;;;-4.03;77.60;100216.92;131011;1264;107821;-78
2023/12/06 00:48:42;;;;;;;81.60;33.20;;;;;;;-4.04;77.83;100221.29;131293;1251;107358;-78
2023/12/06 00:51:47;;;;;;;85.00;35.50;;;;;;;-4.04;77.66;100222.16;131130;1257;106616;-79
2023/12/06 00:54:53;;;;;;;82.10;33.90;;;;;;;-4.05;77.69;100220.27;131297;1254;106558;-78
2023/12/06 00:57:58;;;;;;;80.20;33.40;;;;;;;-4.06;77.69;100221.04;131086;1253;107777;-79
2023/12/06 01:01:04;;;;;;;85.90;36.10;;;;;;;-4.07;77.78;100223.17;130998;1251;107451;-80
2023/12/06 01:04:10;;;;;;;87.60;36.40;;;;;;;-4.10;77.74;100228.65;131056;1257;107646;-79
2023/12/06 01:07:15;;;;;;;80.70;31.80;;;;;;;-4.15;77.86;100235.11;131060;1251;107317;-79
2023/12/06 01:10:22;;;;;;;78.50;32.20;;;;;;;-4.12;77.97;100233.27;131059;1256;108582;-79
2023/12/06 01:13:27;;;;;;;83.60;33.10;;;;;;;-4.07;78.13;100235.99;131052;1264;106496;-78
2023/12/06 01:16:33;;;;;;;75.40;31.10;;;;;;;-4.02;77.97;100234.92;131049;1255;106543;-79
2023/12/06 01:19:38;;;;;;;77.20;33.10;;;;;;;-3.95;78.07;100239.37;131060;1251;107503;-79
2023/12/06 01:22:44;;;;;;;85.20;34.70;;;;;;;-3.87;77.95;100245.48;131142;1257;106362;-79
2023/12/06 01:25:50;;;;;;;91.50;36.20;;;;;;;-3.84;77.89;100238.02;131074;1255;108039;-79
2023/12/06 01:28:55;;;;;;;89.10;34.00;;;;;;;-3.84;77.92;100244.15;131069;1253;106363;-80
2023/12/06 01:32:01;;;;;;;86.90;34.20;;;;;;;-3.85;77.80;100248.70;131011;1257;107674;-80
2023/12/06 01:35:08;;;;;;;83.80;33.70;;;;;;;-3.87;77.88;100253.64;131043;1254;107953;-78
2023/12/06 01:38:14;;;;;;;78.50;32.10;;;;;;;-3.89;77.98;100255.47;131012;1266;108642;-79
2023/12/06 01:41:19;;;;;;;84.30;33.00;;;;;;;-3.92;77.83;100248.12;131069;1255;106269;-79
2023/12/06 01:44:25;;;;;;;81.10;31.30;;;;;;;-3.95;77.73;100247.19;131100;1255;107577;-79
2023/12/06 01:47:33;;;;;;;82.00;32.80;;;;;;;-3.98;77.85;100240.02;131028;1256;106799;-82
2023/12/06 01:50:40;;;;;;;80.40;32.10;;;;;;;-4.02;78.16;100235.45;131093;1251;108367;-80
2023/12/06 01:53:46;;;;;;;74.30;31.60;;;;;;;-4.05;78.18;100235.23;131084;1257;107603;-79
2023/12/06 01:56:52;;;;;;;82.10;32.70;;;;;;;-4.12;78.05;100240.36;130989;1253;108940;-79
2023/12/06 01:59:58;;;;;;;74.90;30.40;;;;;;;-4.20;78.11;100232.88;131003;1254;107077;-79
2023/12/06 02:03:03;;;;;;;80.20;30.30;;;;;;;-4.22;78.30;100233.65;131088;1257;107632;-78
2023/12/06 02:06:10;;;;;;;78.50;31.30;;;;;;;-4.19;78.32;100232.83;131098;1264;106648;-79
2023/12/06 02:09:16;;;;;;;71.00;30.10;;;;;;;-4.14;78.57;100232.98;131086;1251;108499;-79
2023/12/06 02:12:22;;;;;;;78.10;29.10;;;;;;;-4.06;78.66;100232.13;131139;1255;106474;-79
2023/12/06 02:15:27;;;;;;;75.80;31.20;;;;;;;-3.96;78.62;100226.54;131287;1257;107699;-81
2023/12/06 02:18:34;;;;;;;75.50;30.90;;;;;;;-3.91;78.45;100226.88;131100;1254;108138;-79
2023/12/06 02:21:40;;;;;;;84.80;34.10;;;;;;;-3.95;78.35;100233.61;131121;1257;108637;-77
2023/12/06 02:24:48;;;;;;;72.70;31.30;;;;;;;-3.95;78.39;100235.16;131073;1254;108492;-79
2023/12/06 02:27:54;;;;;;;75.20;30.10;;;;;;;-3.95;78.25;100241.79;131004;1254;107525;-79
2023/12/06 02:30:59;;;;;;;71.40;29.90;;;;;;;-3.97;78.57;100238.91;131068;1257;107773;-79
2023/12/06 02:34:12;;;;;;;76.60;31.60;;;;;;;-3.98;78.52;100235.13;131253;1257;108002;-79
2023/12/06 02:37:21;;;;;;;73.60;29.60;;;;;;;-4.04;78.67;100239.86;131140;1254;106994;-76
2023/12/06 02:40:30;;;;;;;72.10;30.30;;;;;;;-4.09;78.66;100234.70;131047;1250;108343;-74
2023/12/06 02:43:35;;;;;;;75.70;30.50;;;;;;;-4.15;78.50;100229.03;131069;1252;107214;-79
2023/12/06 02:46:41;;;;;;;72.70;28.70;;;;;;;-4.15;78.73;100227.27;131090;1255;106048;-77
2023/12/06 02:49:47;;;;;;;81.10;30.50;;;;;;;-4.17;78.77;100226.83;131092;1254;107293;-77
2023/12/06 02:52:52;;;;;;;67.10;27.30;;;;;;;-4.17;78.83;100228.23;131022;1256;106460;-77
2023/12/06 02:55:58;;;;;;;75.90;30.00;;;;;;;-4.15;79.01;100218.27;131083;1251;107562;-77
2023/12/06 02:59:04;;;;;;;74.70;30.50;;;;;;;-4.10;79.03;100220.13;131071;1264;108354;-78
2023/12/06 03:02:09;;;;;;;80.30;29.50;;;;;;;-3.97;79.06;100216.66;131141;1251;107505;-78
2023/12/06 03:05:15;;;;;;;84.10;32.40;;;;;;;-3.87;79.18;100218.02;131158;1254;106716;-78
2023/12/06 03:08:20;;;;;;;81.40;30.90;;;;;;;-3.83;79.06;100225.85;131072;1254;105799;-78
2023/12/06 03:11:26;;;;;;;76.80;30.30;;;;;;;-3.79;78.96;100224.63;131077;1255;106469;-77
2023/12/06 03:14:31;;;;;;;81.20;32.60;;;;;;;-3.77;78.83;100221.39;131082;1251;107094;-77
2023/12/06 03:17:37;;;;;;;82.40;32.20;;;;;;;-3.75;78.96;100225.52;131051;1257;106664;-76
2023/12/06 03:20:42;;;;;;;81.90;32.10;;;;;;;-3.75;79.09;100222.91;131095;1256;108351;-77
2023/12/06 03:23:48;;;;;;;79.80;31.50;;;;;;;-3.79;79.18;100224.80;131146;1255;106292;-78
2023/12/06 03:26:53;;;;;;;78.80;30.50;;;;;;;-3.84;79.14;100230.06;131153;1251;108618;-77
2023/12/06 03:29:59;;;;;;;80.60;31.20;;;;;;;-3.86;79.43;100228.73;131113;1251;106664;-77
2023/12/06 03:33:04;;;;;;;74.10;29.80;;;;;;;-3.93;79.11;100234.41;131430;1251;106948;-78
2023/12/06 03:36:13;;;;;;;80.00;30.80;;;;;;;-3.92;79.26;100232.81;131061;1254;108623;-79
2023/12/06 03:39:19;;;;;;;83.80;31.30;;;;;;;-3.91;79.36;100237.13;131173;1254;108324;-77
2023/12/06 03:42:24;;;;;;;85.50;30.80;;;;;;;-3.91;79.45;100242.66;131028;1254;105973;-75
2023/12/06 03:45:30;;;;;;;85.30;33.40;;;;;;;-3.88;79.46;100241.66;132115;1250;108689;-93
2023/12/06 03:48:36;;;;;;;82.30;29.20;;;;;;;-3.81;79.47;100245.05;132273;1250;107532;-94
2023/12/06 03:51:42;;;;;;;79.70;27.60;;;;;;;-3.71;79.70;100250.52;132252;1251;107558;-93
2023/12/06 03:54:47;;;;;;;80.70;30.80;;;;;;;-3.64;79.74;100254.59;132361;1251;107180;-92
2023/12/06 03:57:54;;;;;;;77.20;30.10;;;;;;;-3.56;79.58;100250.63;132056;1253;107273;-94
2023/12/06 04:01:00;;;;;;;76.70;29.90;;;;;;;-3.54;79.44;100240.65;131662;1251;107515;-93
2023/12/06 04:04:06;;;;;;;77.40;29.80;;;;;;;-3.47;79.20;100250.45;131858;1254;107077;-95
2023/12/06 04:07:12;;;;;;;79.70;30.70;;;;;;;-3.58;79.46;100238.73;132265;1250;107550;-93
2023/12/06 04:10:18;;;;;;;77.10;30.20;;;;;;;-3.49;79.20;100251.21;132036;1253;108179;-92
2023/12/06 04:13:23;;;;;;;73.60;29.90;;;;;;;-3.48;79.45;100247.69;132340;1251;107590;-94
2023/12/06 04:16:30;;;;;;;94.60;39.00;;;;;;;-3.48;79.50;100251.34;132402;1253;107519;-93
2023/12/06 04:19:38;;;;;;;83.60;33.10;;;;;;;-3.52;79.46;100250.11;132467;1251;106352;-92
2023/12/06 04:22:46;;;;;;;77.40;29.90;;;;;;;-3.52;79.73;100243.89;132156;1250;107089;-94
2023/12/06 04:25:52;;;;;;;79.10;32.20;;;;;;;-3.51;79.60;100243.31;132136;1254;108134;-93
2023/12/06 04:28:58;;;;;;;80.80;29.60;;;;;;;-3.55;79.69;100246.09;132223;1254;107497;-92
2023/12/06 04:32:04;;;;;;;77.00;28.40;;;;;;;-3.59;79.55;100239.77;132232;1251;107130;-93
2023/12/06 04:35:11;;;;;;;75.30;28.10;;;;;;;-3.57;79.88;100237.80;132337;1254;106074;-93
2023/12/06 04:38:17;;;;;;;86.60;33.50;;;;;;;-3.50;79.78;100238.23;132339;1251;106622;-92
2023/12/06 04:41:23;;;;;;;87.00;31.20;;;;;;;-3.46;79.62;100236.31;132102;1251;107200;-93
2023/12/06 04:44:28;;;;;;;82.30;31.40;;;;;;;-3.59;79.60;100198.46;132353;1251;106300;-94
2023/12/06 04:47:34;;;;;;;101.60;33.90;;;;;;;-3.38;79.85;100227.95;132493;1251;106220;-93
2023/12/06 04:50:40;;;;;;;93.80;33.80;;;;;;;-3.39;79.69;100230.27;132463;1253;106500;-93
2023/12/06 04:53:46;;;;;;;83.80;31.00;;;;;;;-3.46;79.72;100209.16;132195;1251;107338;-93
2023/12/06 04:56:52;;;;;;;79.60;31.10;;;;;;;-3.37;79.67;100223.91;132528;1254;106407;-93
2023/12/06 04:59:58;;;;;;;85.00;32.70;;;;;;;-3.39;79.76;100218.97;132082;1249;107425;-92
2023/12/06 05:03:04;;;;;;;87.50;32.60;;;;;;;-3.40;79.89;100218.85;132210;1250;107568;-94
2023/12/06 05:06:11;;;;;;;82.10;31.20;;;;;;;-3.42;79.70;100217.04;132434;1250;107575;-92
2023/12/06 05:09:17;;;;;;;81.20;30.60;;;;;;;-3.44;79.91;100217.45;132180;1250;109074;-92
2023/12/06 05:12:22;;;;;;;76.40;30.60;;;;;;;-3.45;80.07;100219.04;132180;1251;107300;-92
2023/12/06 05:15:28;;;;;;;74.50;28.80;;;;;;;-3.50;79.97;100222.75;132211;1256;107539;-93
2023/12/06 05:18:35;;;;;;;79.50;28.40;;;;;;;-3.55;80.16;100213.92;132178;1251;106877;-94
2023/12/06 05:21:42;;;;;;;80.20;31.30;;;;;;;-3.58;80.35;100219.22;132258;1250;107113;-94
2023/12/06 05:24:48;;;;;;;77.70;28.30;;;;;;;-3.66;80.53;100209.84;132249;1249;106057;-93
2023/12/06 05:27:53;;;;;;;71.40;28.20;;;;;;;-3.53;80.47;100229.63;132248;1251;107671;-92
2023/12/06 05:30:59;;;;;;;77.60;27.20;;;;;;;-3.41;80.46;100232.82;132360;1253;107486;-92
2023/12/06 05:34:07;;;;;;;78.60;30.50;;;;;;;-3.30;80.65;100226.06;132120;1251;107262;-93
2023/12/06 05:37:13;;;;;;;74.20;28.30;;;;;;;-3.24;80.86;100228.23;132166;1254;107473;-94
2023/12/06 05:40:20;;;;;;;78.70;29.00;;;;;;;-3.24;80.67;100229.63;132259;1251;106167;-94
2023/12/06 05:43:26;;;;;;;77.90;32.00;;;;;;;-3.23;80.40;100237.24;132476;1251;106869;-93
2023/12/06 05:46:32;;;;;;;72.30;28.40;;;;;;;-3.22;80.66;100244.50;132163;1250;107573;-94
2023/12/06 05:49:38;;;;;;;70.70;28.60;;;;;;;-3.22;80.55;100251.30;132178;1250;107435;-92
2023/12/06 05:52:43;;;;;;;76.30;28.80;;;;;;;-3.25;80.58;100259.27;132347;1249;107574;-93
2023/12/06 05:55:49;;;;;;;70.80;27.60;;;;;;;-3.28;80.72;100265.29;132426;1250;107590;-92
2023/12/06 05:58:55;;;;;;;80.30;30.60;;;;;;;-3.27;80.72;100268.02;132432;1250;107513;-92
2023/12/06 06:02:03;;;;;;;73.20;27.40;;;;;;;-3.27;80.54;100268.02;132170;1253;106310;-92
2023/12/06 06:05:12;;;;;;;68.70;26.20;;;;;;;-3.22;80.68;100268.34;132304;1251;107091;-93
2023/12/06 06:08:17;;;;;;;66.20;25.80;;;;;;;-3.17;81.01;100265.88;132285;1251;107134;-93
2023/12/06 06:11:23;;;;;;;80.80;30.70;;;;;;;-3.06;80.85;100270.99;132114;1253;107079;-93
2023/12/06 06:14:29;;;;;;;86.00;30.20;;;;;;;-2.97;81.17;100262.41;132342;1250;106313;-92
2023/12/06 06:17:35;;;;;;;71.00;28.40;;;;;;;-2.88;81.20;100257.86;132282;1249;107476;-93
2023/12/06 06:20:41;;;;;;;71.90;28.50;;;;;;;-2.91;80.97;100245.26;132304;1250;107637;-93
2023/12/06 06:23:46;;;;;;;82.80;31.30;;;;;;;-2.79;80.89;100265.95;132006;1250;107969;-92
2023/12/06 06:26:53;;;;;;;74.30;31.30;;;;;;;-2.80;81.04;100261.14;132338;1249;107546;-92
2023/12/06 06:29:59;;;;;;;72.60;29.80;;;;;;;-2.80;81.24;100264.42;131974;1250;108107;-94
2023/12/06 06:33:06;;;;;;;70.00;29.20;;;;;;;-2.84;81.02;100274.20;132055;1254;107032;-91
2023/12/06 06:36:13;;;;;;;68.40;29.80;;;;;;;-2.82;80.91;100273.08;132098;1250;107669;-93
2023/12/06 06:39:19;;;;;;;68.60;27.30;;;;;;;-2.84;81.10;100271.23;132052;1250;107532;-93
2023/12/06 06:42:24;;;;;;;70.70;28.30;;;;;;;-2.85;81.34;100265.73;132184;1250;107050;-93
2023/12/06 06:45:30;;;;;;;73.70;29.00;;;;;;;-2.86;81.17;100267.50;132146;1250;107530;-94
2023/12/06 06:48:37;;;;;;;68.20;27.20;;;;;;;-2.87;81.44;100266.48;132501;1250;107028;-93
2023/12/06 06:51:44;;;;;;;69.00;26.70;;;;;;;-2.81;81.49;100265.89;132360;1251;107274;-94
2023/12/06 06:54:51;;;;;;;69.50;27.00;;;;;;;-2.74;81.73;100266.77;132541;1253;107529;-92
2023/12/06 06:58:03;;;;;;;55.60;23.50;;;;;;;-2.62;81.55;100270.63;132771;1251;107418;-89
2023/12/06 07:01:19;;;;;;;61.60;27.30;;;;;;;-2.51;81.69;100277.58;132547;1250;107594;-93
2023/12/06 07:04:26;;;;;;;63.50;27.80;;;;;;;-2.44;81.25;100282.70;131981;1252;106424;-94
2023/12/06 07:07:32;;;;;;;62.80;26.60;;;;;;;-2.41;81.23;100280.96;131690;1249;107207;-82
2023/12/06 07:10:38;;;;;;;56.40;25.30;;;;;;;-2.41;81.43;100286.04;131268;1253;108280;-80
2023/12/06 07:13:44;;;;;;;71.00;28.70;;;;;;;-2.41;81.24;100289.33;131367;1256;107765;-84
2023/12/06 07:16:50;;;;;;;60.00;26.00;;;;;;;-2.41;81.39;100294.38;131339;1252;106959;-85
2023/12/06 07:19:55;;;;;;;54.80;24.20;;;;;;;-2.36;81.44;100297.66;131370;1253;107711;-84
2023/12/06 07:23:03;;;;;;;55.40;25.10;;;;;;;-2.33;81.62;100297.20;131278;1255;107470;-84
2023/12/06 07:26:09;;;;;;;61.30;26.20;;;;;;;-2.35;81.44;100297.80;131342;1258;106693;-84
2023/12/06 07:29:15;;;;;;;59.10;25.30;;;;;;;-2.42;81.48;100298.95;131348;1253;108140;-84
2023/12/06 07:32:21;;;;;;;60.30;26.10;;;;;;;-2.45;81.55;100299.27;131448;1253;106146;-83
2023/12/06 07:35:27;;;;;;;58.20;24.70;;;;;;;-2.42;81.58;100304.02;131375;1250;108006;-85
2023/12/06 07:38:32;;;;;;;56.80;23.50;;;;;;;-2.34;81.65;100304.20;131390;1257;107620;-85
2023/12/06 07:41:38;;;;;;;58.50;24.50;;;;;;;-2.29;81.55;100302.71;131347;1250;106508;-84
2023/12/06 07:44:44;;;;;;;60.60;25.10;;;;;;;-2.19;81.40;100308.56;131521;1251;106728;-84
2023/12/06 07:47:50;;;;;;;57.40;24.70;;;;;;;-2.10;81.55;100306.91;131525;1253;107796;-84
2023/12/06 07:50:55;;;;;;;53.40;23.80;;;;;;;-2.05;81.17;100304.45;131284;1254;108609;-84
2023/12/06 07:54:01;;;;;;;54.80;23.90;;;;;;;-2.03;81.28;100299.45;131325;1254;106520;-85
2023/12/06 07:57:08;;;;;;;53.80;24.80;;;;;;;-2.04;81.30;100300.16;131401;1250;106850;-84
2023/12/06 08:00:15;;;;;;;53.40;23.70;;;;;;;-2.09;81.50;100306.69;131358;1251;108573;-84
2023/12/06 08:03:24;;;;;;;54.10;25.60;;;;;;;-2.07;81.32;100305.19;131336;1251;108495;-83
2023/12/06 08:06:29;;;;;;;64.20;31.40;;;;;;;-2.04;81.56;100300.87;131425;1254;106694;-85
2023/12/06 08:09:35;;;;;;;58.60;27.20;;;;;;;-2.03;81.45;100304.14;131197;1251;108692;-84
2023/12/06 08:12:41;;;;;;;64.30;30.80;;;;;;;-2.02;81.47;100302.54;131342;1256;107156;-83
2023/12/06 08:15:46;;;;;;;89.90;40.70;;;;;;;-2.04;81.40;100301.05;131505;1251;107282;-82
2023/12/06 08:18:52;;;;;;;171.00;56.50;;;;;;;-2.03;81.36;100302.90;131259;1253;106912;-82
2023/12/06 08:21:57;;;;;;;85.40;32.60;;;;;;;-2.00;81.41;100305.23;131425;1254;106540;-84
2023/12/06 08:25:03;;;;;;;119.20;41.10;;;;;;;-1.93;81.64;100300.23;131491;1254;107555;-85
2023/12/06 08:28:09;;;;;;;117.80;41.00;;;;;;;-1.82;81.56;100302.63;131446;1266;107111;-85
2023/12/06 08:31:15;;;;;;;123.50;44.60;;;;;;;-1.69;81.28;100299.04;131384;1251;107507;-84
2023/12/06 08:34:21;;;;;;;93.00;34.40;;;;;;;-1.62;81.25;100292.61;131394;1254;106728;-85
2023/12/06 08:37:26;;;;;;;161.00;51.00;;;;;;;-1.59;81.07;100287.92;132629;1251;106177;-85
2023/12/06 08:40:32;;;;;;;157.80;47.90;;;;;;;-1.53;81.20;100287.13;131272;1254;106847;-85
2023/12/06 08:43:40;;;;;;;158.40;48.30;;;;;;;-1.50;80.91;100290.10;131237;1254;107634;-84
2023/12/06 08:46:46;;;;;;;158.90;46.40;;;;;;;-1.51;81.16;100295.39;131299;1254;106385;-84
2023/12/06 08:49:51;;;;;;;123.20;40.30;;;;;;;-1.50;80.85;100292.59;131343;1249;108333;-83
2023/12/06 08:52:57;;;;;;;80.50;31.60;;;;;;;-1.46;80.90;100285.41;131191;1253;108496;-83
2023/12/06 08:59:49;;;;;;;90.40;36.70;;;;;;;-1.34;81.03;100291.77;131261;1253;108272;-85
2023/12/06 09:02:55;;;;;;;96.20;36.20;;;;;;;-1.28;81.08;100294.06;131326;1257;107135;-85
2023/12/06 09:06:00;;;;;;;133.10;51.20;;;;;;;-1.25;80.87;100290.44;131509;1254;107772;-85
2023/12/06 09:09:06;;;;;;;95.20;35.40;;;;;;;-1.20;80.91;100297.68;131490;1249;108458;-83
2023/12/06 09:12:12;;;;;;;108.20;41.40;;;;;;;-1.26;80.69;100293.81;131342;1251;107604;-84
2023/12/06 09:15:17;;;;;;;82.80;35.00;;;;;;;-1.27;80.95;100298.94;131431;1254;107270;-83
2023/12/06 09:18:23;;;;;;;62.60;26.70;;;;;;;-1.17;80.98;100301.23;131396;1250;108937;-85
2023/12/06 09:21:39;;;;;;;74.50;32.80;;;;;;;-1.08;80.75;100304.61;131268;1255;107727;-85
2023/12/06 09:24:45;;;;;;;74.50;32.00;;;;;;;-1.05;80.63;100302.00;131310;1253;107494;-83
2023/12/06 09:28:20;;;;;;;75.30;33.40;;;;;;;-1.03;80.70;100302.61;131334;1251;107711;-84
2023/12/06 09:31:26;;;;;;;72.60;32.30;;;;;;;-0.99;80.61;100300.84;131364;1251;108898;-85
2023/12/06 09:34:31;;;;;;;62.50;28.70;;;;;;;-0.96;80.51;100302.07;131238;1250;107675;-84
2023/12/06 09:37:37;;;;;;;64.10;29.20;;;;;;;-0.98;80.46;100300.27;131276;1258;108665;-84
2023/12/06 09:40:43;;;;;;;69.80;29.70;;;;;;;-0.99;80.38;100299.46;131414;1250;107122;-84
2023/12/06 09:43:51;;;;;;;62.30;27.90;;;;;;;-1.05;80.24;100304.62;131331;1251;108641;-84
2023/12/06 09:46:58;;;;;;;57.50;26.60;;;;;;;-1.06;80.22;100309.56;131359;1251;107733;-85
2023/12/06 09:50:05;;;;;;;62.50;27.20;;;;;;;-1.08;80.10;100312.83;131578;1254;106876;-84
2023/12/06 09:53:10;;;;;;;64.40;28.20;;;;;;;-1.14;80.33;100310.67;131343;1249;106517;-85
2023/12/06 09:56:18;;;;;;;65.10;28.80;;;;;;;-1.16;80.17;100307.13;131357;1251;108394;-85
2023/12/06 09:59:23;;;;;;;65.60;28.00;;;;;;;-1.19;79.86;100301.29;131262;1256;107554;-85
2023/12/06 10:02:29;;;;;;;63.10;27.60;;;;;;;-1.25;80.16;100297.41;131340;1253;107520;-84
2023/12/06 10:05:34;;;;;;;74.40;29.00;;;;;;;-1.23;80.21;100301.70;131366;1251;106486;-84
2023/12/06 10:08:40;;;;;;;72.50;29.70;;;;;;;-1.25;80.03;100293.23;131327;1256;108725;-84
2023/12/06 10:11:47;;;;;;;70.30;28.10;;;;;;;-1.23;80.03;100291.21;131231;1256;107211;-84
2023/12/06 10:15:00;;;;;;;66.40;26.80;;;;;;;-1.16;80.14;100289.48;131697;1251;107836;-82
2023/12/06 10:18:15;;;;;;;73.00;30.30;;;;;;;-1.03;80.04;100287.95;131859;1249;106638;-85
2023/12/06 10:21:36;;;;;;;70.60;29.10;;;;;;;-0.93;79.90;100287.43;131386;1258;107579;-85
2023/12/06 10:24:49;;;;;;;65.00;28.00;;;;;;;-0.86;80.05;100285.30;131452;1251;110179;-86
2023/12/06 10:28:03;;;;;;;67.60;28.80;;;;;;;-0.74;79.87;100282.46;131405;1251;107710;-83
2023/12/06 10:31:08;;;;;;;67.50;29.30;;;;;;;-0.71;79.73;100287.86;131452;1254;107161;-84
2023/12/06 10:34:15;;;;;;;65.70;27.90;;;;;;;-0.71;79.50;100283.15;131405;1250;108651;-83
2023/12/06 10:37:22;;;;;;;70.30;32.40;;;;;;;-0.68;79.53;100277.27;131358;1253;107468;-84
2023/12/06 10:40:29;;;;;;;72.20;32.10;;;;;;;-0.67;79.81;100276.11;131282;1250;106987;-83
2023/12/06 10:43:36;;;;;;;69.70;30.10;;;;;;;-0.64;79.83;100275.98;131413;1250;106888;-85
2023/12/06 10:46:42;;;;;;;64.10;28.60;;;;;;;-0.61;79.67;100277.55;131324;1253;106756;-83
2023/12/06 10:49:51;;;;;;;64.10;27.90;;;;;;;-0.64;79.64;100274.55;131334;1254;106406;-84
2023/12/06 10:52:57;;;;;;;68.60;29.50;;;;;;;-0.64;79.81;100270.40;131277;1254;107695;-84
2023/12/06 10:56:03;;;;;;;67.10;29.60;;;;;;;-0.62;79.68;100270.80;131468;1251;107472;-84
2023/12/06 10:59:12;;;;;;;70.90;30.60;;;;;;;-0.60;79.66;100264.77;131259;1251;107601;-84
2023/12/06 11:02:18;;;;;;;68.80;28.70;;;;;;;-0.66;79.42;100264.17;131350;1254;107425;-84
2023/12/06 11:05:26;;;;;;;68.10;29.50;;;;;;;-0.69;79.74;100260.68;131527;1251;107518;-84
2023/12/06 11:08:48;;;;;;;78.20;32.30;;;;;;;-0.71;79.73;100258.53;131340;1251;107722;-84
2023/12/06 11:12:05;;;;;;;80.40;31.80;;;;;;;-0.73;79.69;100260.89;131264;1250;106373;-85
2023/12/06 11:15:30;;;;;;;73.30;29.20;;;;;;;-0.72;79.57;100258.73;131353;1253;105823;-84
2023/12/06 11:18:44;;;;;;;72.30;30.30;;;;;;;-0.68;79.52;100257.15;131222;1254;107585;-85
2023/12/06 11:21:49;;;;;;;72.50;31.00;;;;;;;-0.67;79.44;100253.77;131228;1251;107614;-84
2023/12/06 11:24:55;;;;;;;65.30;29.60;;;;;;;-0.64;79.63;100257.29;131460;1251;107613;-85
2023/12/06 11:28:01;;;;;;;74.40;30.80;;;;;;;-0.59;79.58;100258.41;131278;1255;106537;-84
2023/12/06 11:31:08;;;;;;;74.80;34.40;;;;;;;-0.61;79.41;100256.95;131271;1257;106770;-85
2023/12/06 11:34:13;;;;;;;76.10;34.40;;;;;;;-0.68;79.29;100257.47;131220;1256;107703;-86
2023/12/06 11:37:19;;;;;;;79.10;35.10;;;;;;;-0.74;79.57;100253.61;131211;1252;106965;-83
2023/12/06 11:40:27;;;;;;;79.00;34.20;;;;;;;-0.80;79.47;100253.39;131336;1254;106851;-85
2023/12/06 11:43:34;;;;;;;77.30;32.90;;;;;;;-0.75;79.65;100257.89;131352;1251;107727;-84
2023/12/06 11:46:40;;;;;;;78.00;32.20;;;;;;;-0.70;79.66;100259.02;131359;1251;108693;-84
2023/12/06 11:49:53;;;;;;;71.50;31.20;;;;;;;-0.72;79.44;100262.59;131440;1253;108017;-82
2023/12/06 11:53:01;;;;;;;80.10;34.10;;;;;;;-0.76;79.43;100264.57;131304;1250;108421;-84
2023/12/06 11:56:09;;;;;;;81.40;33.10;;;;;;;-0.82;79.34;100267.48;131320;1251;107740;-83
2023/12/06 11:59:15;;;;;;;88.80;35.60;;;;;;;-0.92;79.60;100275.13;131261;1254;106067;-85
2023/12/06 12:02:21;;;;;;;90.30;34.70;;;;;;;-0.92;79.36;100269.95;131186;1255;182003;-83
2023/12/06 12:05:26;;;;;;;86.70;35.50;;;;;;;-0.91;79.28;100270.75;131219;1251;106091;-83
2023/12/06 12:08:42;;;;;;;83.70;32.90;;;;;;;-0.89;79.46;100270.46;131306;1254;106849;-85
2023/12/06 12:11:48;;;;;;;92.50;36.90;;;;;;;-0.84;79.51;100276.30;131454;1253;107367;-82
2023/12/06 12:15:06;;;;;;;83.60;35.40;;;;;;;-0.77;79.32;100276.65;131626;1249;108552;-85
2023/12/06 12:18:26;;;;;;;83.30;35.50;;;;;;;-0.71;79.09;100270.58;131632;1253;106520;-83
2023/12/06 12:21:32;;;;;;;82.00;33.40;;;;;;;-0.72;79.15;100270.96;131489;1254;106407;-85
2023/12/06 12:24:38;;;;;;;77.40;33.40;;;;;;;-0.73;78.98;100269.29;131462;1250;106545;-84
2023/12/06 12:27:45;;;;;;;81.60;31.60;;;;;;;-0.77;78.92;100265.29;131516;1254;107471;-85
2023/12/06 12:30:55;;;;;;;74.50;31.30;;;;;;;-0.88;78.80;100262.02;131496;1253;107599;-83
2023/12/06 12:34:02;;;;;;;72.80;30.70;;;;;;;-0.92;79.18;100257.84;131315;1253;108595;-86
2023/12/06 12:37:08;;;;;;;76.40;32.00;;;;;;;-0.92;79.14;100257.38;131318;1254;106600;-85
2023/12/06 12:40:14;;;;;;;83.80;33.50;;;;;;;-0.93;79.22;100263.00;131578;1253;107114;-84
2023/12/06 12:43:19;;;;;;;85.00;34.90;;;;;;;-0.93;79.32;100266.85;131446;1250;107794;-84
2023/12/06 12:46:26;;;;;;;80.60;32.60;;;;;;;-0.95;79.22;100267.08;131385;1254;108742;-84
2023/12/06 12:49:32;;;;;;;88.20;34.30;;;;;;;-0.98;79.12;100265.16;131375;1250;107452;-85
2023/12/06 12:52:39;;;;;;;76.30;31.90;;;;;;;-1.03;79.07;100265.42;131364;1254;107803;-84
2023/12/06 12:55:48;;;;;;;108.60;38.30;;;;;;;-1.06;79.15;100264.70;131512;1251;106663;-84
2023/12/06 12:58:54;;;;;;;96.10;34.10;;;;;;;-1.07;79.00;100264.26;131339;1255;107740;-85
2023/12/06 13:02:00;;;;;;;93.20;35.00;;;;;;;-1.12;79.10;100261.04;131296;1256;108537;-85
2023/12/06 13:05:07;;;;;;;75.90;30.30;;;;;;;-1.07;78.92;100264.95;131302;1256;106579;-83
2023/12/06 13:08:13;;;;;;;80.10;32.60;;;;;;;-1.06;79.00;100261.24;131384;1250;107536;-83
2023/12/06 13:11:19;;;;;;;77.20;31.50;;;;;;;-1.05;79.11;100265.02;131401;1250;107370;-85
2023/12/06 13:14:25;;;;;;;80.30;33.30;;;;;;;-1.02;79.04;100262.37;131455;1254;108487;-85
2023/12/06 13:17:30;;;;;;;75.50;32.40;;;;;;;-0.97;79.11;100267.55;131451;1250;107137;-83
2023/12/06 13:20:36;;;;;;;79.20;34.70;;;;;;;-0.93;79.30;100268.21;131477;1254;108034;-85
2023/12/06 13:23:42;;;;;;;72.00;31.90;;;;;;;-0.95;78.83;100262.20;131341;1250;107964;-84
2023/12/06 13:26:47;;;;;;;73.20;30.70;;;;;;;-0.97;78.85;100268.27;131327;1256;106836;-84
2023/12/06 13:29:54;;;;;;;75.60;31.20;;;;;;;-1.01;78.78;100272.29;131380;1254;108573;-86
2023/12/06 13:32:59;;;;;;;75.80;32.80;;;;;;;-1.04;78.62;100274.20;131307;1250;106475;-83
2023/12/06 13:36:06;;;;;;;69.60;29.80;;;;;;;-1.10;78.70;100277.64;131328;1251;108393;-83
2023/12/06 13:39:12;;;;;;;68.60;28.90;;;;;;;-1.15;78.86;100277.42;131403;1256;107702;-83
2023/12/06 13:42:18;;;;;;;68.90;29.50;;;;;;;-1.20;78.95;100277.79;131446;1250;105863;-83
2023/12/06 13:45:24;;;;;;;69.40;29.70;;;;;;;-1.28;78.95;100277.35;131325;1251;108361;-85
2023/12/06 13:48:29;;;;;;;89.10;40.10;;;;;;;-1.35;78.98;100274.05;131508;1253;106716;-84
2023/12/06 13:51:35;;;;;;;79.10;32.20;;;;;;;-1.42;79.23;100278.21;131392;1256;108759;-83
2023/12/06 13:54:40;;;;;;;68.60;29.40;;;;;;;-1.46;79.27;100280.70;131306;1255;108656;-83